createdAt,value
2022-11-09T00:01:05.257Z,1.10
2022-11-09T00:03:32.793Z,1.27
2022-11-09T00:06:01.233Z,1.00
2022-11-09T00:08:29.052Z,1.00
2022-11-09T00:11:06.113Z,1.23
2022-11-09T00:13:37.339Z,1.00
2022-11-09T00:16:06.620Z,1.10
2022-11-09T00:18:38.361Z,1.10
2022-11-09T00:21:11.941Z,1.20
2022-11-09T00:23:39.512Z,1.00
2022-11-09T00:26:09.147Z,1.23
2022-11-09T00:28:36.948Z,0.95
2022-11-09T00:31:10.578Z,1.00
2022-11-09T00:33:39.221Z,0.95
2022-11-09T00:36:10.509Z,0.98
2022-11-09T00:38:40.610Z,1.25
2022-11-09T00:41:10.210Z,1.00
2022-11-09T00:43:38.551Z,0.90
2022-11-09T00:46:07.001Z,1.13
2022-11-09T00:48:35.238Z,0.90
2022-11-09T00:51:03.209Z,1.10
2022-11-09T00:53:31.239Z,1.00
2022-11-09T00:56:04.499Z,1.15
2022-11-09T00:58:35.990Z,1.25
2022-11-09T01:01:15.416Z,1.45
2022-11-09T01:03:44.955Z,1.20
2022-11-09T01:06:17.995Z,1.15
2022-11-09T01:08:46.625Z,1.08
2022-11-09T01:11:16.678Z,0.98
2022-11-09T01:13:44.284Z,1.10
2022-11-09T01:16:15.545Z,1.02
2022-11-09T01:18:43.624Z,1.25
2022-11-09T01:21:13.313Z,1.20
2022-11-09T01:23:42.792Z,1.30
2022-11-09T01:26:12.886Z,1.70
2022-11-09T01:28:41.136Z,1.20
2022-11-09T01:31:15.090Z,1.15
2022-11-09T01:33:43.021Z,1.20
2022-11-09T01:36:13.345Z,1.30
2022-11-09T01:38:41.369Z,1.50
2022-11-09T01:41:13.642Z,1.20
2022-11-09T01:43:46.792Z,1.33
2022-11-09T01:46:52.435Z,1.33
2022-11-09T01:49:42.407Z,1.30
2022-11-09T01:52:22.204Z,1.63
2022-11-09T01:54:55.221Z,1.20
2022-11-09T01:57:28.101Z,1.60
2022-11-09T02:00:04.409Z,1.20
2022-11-09T02:02:47.120Z,1.20
2022-11-09T02:05:22.195Z,1.20
2022-11-09T02:07:52.862Z,1.30
2022-11-09T02:10:30.634Z,1.77
2022-11-09T02:13:02.259Z,1.48
2022-11-09T02:15:39.151Z,1.10
2022-11-09T02:18:11.446Z,1.38
2022-11-09T02:20:46.655Z,1.27
2022-11-09T02:23:14.571Z,1.40
2022-11-09T02:25:47.073Z,1.15
2022-11-09T02:28:16.377Z,1.35
2022-11-09T02:30:48.415Z,1.45
2022-11-09T02:33:16.222Z,2.08
2022-11-09T02:35:44.059Z,1.23
2022-11-09T02:38:13.768Z,1.17
2022-11-09T02:40:45.611Z,1.42
2022-11-09T02:43:15.723Z,1.42
2022-11-09T02:45:44.848Z,1.30
2022-11-09T02:48:12.401Z,0.85
2022-11-09T02:50:39.910Z,1.13
2022-11-09T02:53:07.403Z,1.38
2022-11-09T02:55:38.134Z,1.08
2022-11-09T02:58:07.376Z,1.17
2022-11-09T03:00:35.972Z,0.90
2022-11-09T03:03:04.636Z,1.00
2022-11-09T03:05:32.471Z,1.30
2022-11-09T03:08:02.568Z,1.20
2022-11-09T03:10:33.444Z,1.15
2022-11-09T03:13:02.059Z,1.30
2022-11-09T03:15:29.574Z,1.40
2022-11-09T03:17:57.241Z,1.10
2022-11-09T03:20:25.455Z,1.20
2022-11-09T03:22:58.772Z,1.20
2022-11-09T03:25:27.919Z,1.33
2022-11-09T03:28:00.455Z,1.10
2022-11-09T03:30:28.409Z,1.48
2022-11-09T03:33:10.089Z,1.25
2022-11-09T03:35:38.624Z,1.15
2022-11-09T03:38:06.868Z,1.77
2022-11-09T03:40:34.553Z,1.20
2022-11-09T03:43:02.150Z,1.20
2022-11-09T03:45:29.691Z,0.93
2022-11-09T03:48:00.164Z,1.08
2022-11-09T03:50:29.353Z,1.10
2022-11-09T03:52:57.696Z,1.02
2022-11-09T03:55:25.701Z,1.30
2022-11-09T03:57:53.715Z,1.10
2022-11-09T04:00:22.935Z,0.75
2022-11-09T04:02:50.731Z,1.45
2022-11-09T04:05:18.692Z,1.02
2022-11-09T04:07:52.276Z,1.02
2022-11-09T04:10:20.758Z,1.27
2022-11-09T04:12:48.604Z,0.93
2022-11-09T04:15:16.826Z,1.10
2022-11-09T04:17:47.349Z,1.20
2022-11-09T04:20:14.886Z,1.00
2022-11-09T04:22:42.356Z,0.90
2022-11-09T04:25:09.802Z,1.50
2022-11-09T04:27:37.295Z,0.93
2022-11-09T04:30:05.305Z,0.90
2022-11-09T04:32:32.794Z,1.00
2022-11-09T04:35:00.835Z,1.30
2022-11-09T04:37:28.242Z,1.00
2022-11-09T04:39:55.708Z,1.00
2022-11-09T04:42:23.077Z,0.82
2022-11-09T04:44:50.562Z,0.90
2022-11-09T04:47:17.964Z,1.02
2022-11-09T04:49:45.508Z,0.85
2022-11-09T04:52:12.948Z,0.93
2022-11-09T04:54:40.442Z,1.00
2022-11-09T04:57:07.864Z,1.15
2022-11-09T04:59:35.325Z,1.25
2022-11-09T05:02:02.867Z,0.85
2022-11-09T05:04:30.321Z,1.38
2022-11-09T05:06:57.848Z,1.30
2022-11-09T05:09:25.286Z,1.40
2022-11-09T05:11:52.832Z,1.10
2022-11-09T05:14:20.248Z,1.10
2022-11-09T05:16:47.741Z,1.20
2022-11-09T05:19:15.214Z,1.33
2022-11-09T05:21:42.739Z,1.15
2022-11-09T05:24:10.423Z,1.10
2022-11-09T05:26:40.252Z,1.00
2022-11-09T05:29:10.366Z,1.10
2022-11-09T05:31:38.796Z,1.15
2022-11-09T05:34:07.892Z,0.90
2022-11-09T05:36:35.387Z,1.13
2022-11-09T05:39:03.014Z,0.80
2022-11-09T05:41:30.722Z,1.10
2022-11-09T05:43:58.132Z,1.00
2022-11-09T05:46:26.321Z,1.00
2022-11-09T05:48:53.826Z,1.00
2022-11-09T05:51:21.258Z,1.30
2022-11-09T05:53:48.811Z,0.93
2022-11-09T05:56:16.374Z,0.98
2022-11-09T05:58:44.105Z,0.85
2022-11-09T06:01:16.787Z,0.95
2022-11-09T06:03:45.015Z,0.93
2022-11-09T06:06:14.621Z,1.00
2022-11-09T06:08:42.578Z,1.00
2022-11-09T06:11:13.866Z,1.10
2022-11-09T06:13:44.485Z,1.00
2022-11-09T06:16:11.991Z,1.00
2022-11-09T06:18:39.467Z,0.90
2022-11-09T06:21:07.104Z,0.80
2022-11-09T06:23:34.951Z,0.95
2022-11-09T06:26:09.864Z,1.08
2022-11-09T06:28:41.389Z,1.10
2022-11-09T06:31:12.713Z,0.90
2022-11-09T06:33:40.184Z,1.27
2022-11-09T06:36:08.166Z,1.10
2022-11-09T06:38:35.669Z,1.05
2022-11-09T06:41:03.168Z,0.85
2022-11-09T06:43:30.774Z,0.93
2022-11-09T06:45:58.259Z,1.38
2022-11-09T06:48:25.901Z,1.45
2022-11-09T06:50:53.510Z,1.00
2022-11-09T06:53:21.298Z,1.00
2022-11-09T06:55:50.791Z,0.90
2022-11-09T06:58:19.803Z,0.90
2022-11-09T07:00:47.451Z,1.50
2022-11-09T07:03:16.641Z,1.30
2022-11-09T07:05:44.979Z,1.00
2022-11-09T07:08:13.037Z,1.10
2022-11-09T07:10:41.454Z,0.75
2022-11-09T07:13:09.307Z,1.10
2022-11-09T07:15:38.312Z,1.20
2022-11-09T07:18:08.304Z,1.10
2022-11-09T07:20:37.123Z,1.20
2022-11-09T07:23:04.587Z,1.20
2022-11-09T07:25:32.775Z,0.93
2022-11-09T07:28:08.614Z,1.15
2022-11-09T07:30:37.026Z,1.10
2022-11-09T07:54:17.025Z,1.23
2022-11-09T07:56:44.633Z,1.15
2022-11-09T07:59:12.104Z,1.20
2022-11-09T08:01:39.700Z,1.40
2022-11-09T08:04:07.423Z,1.23
2022-11-09T08:06:35.101Z,1.27
2022-11-09T08:09:02.708Z,1.00
2022-11-09T08:11:30.220Z,1.00
2022-11-09T08:13:57.725Z,0.90
2022-11-09T08:16:25.236Z,1.35
2022-11-09T08:18:52.771Z,1.15
2022-11-09T08:21:20.423Z,1.10
2022-11-09T08:23:47.861Z,1.33
2022-11-09T08:26:15.286Z,1.77
2022-11-09T08:28:42.776Z,1.52
2022-11-09T08:31:10.334Z,1.20
2022-11-09T08:33:40.890Z,1.30
2022-11-09T08:36:12.822Z,1.17
2022-11-09T08:38:41.123Z,1.77
2022-11-09T08:41:13.203Z,1.52
2022-11-09T08:43:41.393Z,1.27
2022-11-09T08:46:09.134Z,1.40
2022-11-09T08:48:36.734Z,1.25
2022-11-09T08:51:04.325Z,1.10
2022-11-09T08:53:31.807Z,1.00
2022-11-09T08:55:59.470Z,1.10
2022-11-09T08:58:27.056Z,1.45
2022-11-09T09:00:54.495Z,1.40
2022-11-09T09:03:22.042Z,1.30
2022-11-09T09:05:49.500Z,1.15
2022-11-09T09:08:19.139Z,1.42
2022-11-09T09:10:46.772Z,1.33
2022-11-09T09:13:14.246Z,1.70
2022-11-09T09:15:41.698Z,1.30
2022-11-09T09:18:09.216Z,1.58
2022-11-09T09:20:36.768Z,1.45
2022-11-09T09:23:04.239Z,1.40
2022-11-09T09:25:31.833Z,1.60
2022-11-09T09:27:59.389Z,1.83
2022-11-09T09:30:26.956Z,1.88
2022-11-09T09:32:59.223Z,1.70
2022-11-09T09:35:28.222Z,2.08
2022-11-09T09:37:58.095Z,1.63
2022-11-09T09:40:38.389Z,1.92
2022-11-09T09:43:05.979Z,2.20
2022-11-09T09:45:36.676Z,1.80
2022-11-09T09:48:12.842Z,1.77
2022-11-09T09:50:48.752Z,2.17
2022-11-09T09:56:16.975Z,2.03
2022-11-09T09:59:01.327Z,1.40
2022-11-09T10:01:38.497Z,2.05
2022-11-09T10:04:21.619Z,1.40
2022-11-09T10:06:49.131Z,1.42
2022-11-09T10:09:24.404Z,1.52
2022-11-09T10:12:00.875Z,1.40
2022-11-09T10:14:47.588Z,2.15
2022-11-09T10:17:41.640Z,1.65
2022-11-09T10:20:30.725Z,1.90
2022-11-09T10:23:05.716Z,1.60
2022-11-09T10:26:02.531Z,1.65
2022-11-09T10:28:42.598Z,2.13
2022-11-09T10:31:22.042Z,1.20
2022-11-09T10:34:25.610Z,1.85
2022-11-09T10:37:04.672Z,1.88
2022-11-09T10:40:01.032Z,1.77
2022-11-09T10:42:54.594Z,1.50
2022-11-09T10:45:43.198Z,1.58
2022-11-09T10:48:36.508Z,2.03
2022-11-09T10:51:43.765Z,2.00
2022-11-09T10:54:37.045Z,1.63
2022-11-09T10:57:24.646Z,2.80
2022-11-09T11:00:20.235Z,1.90
2022-11-09T11:03:15.431Z,2.08
2022-11-09T11:06:05.988Z,2.20
2022-11-09T11:08:55.028Z,2.00
2022-11-09T11:11:41.450Z,2.15
2022-11-09T11:17:35.253Z,1.77
2022-11-09T11:20:31.703Z,2.30
2022-11-09T11:23:26.849Z,2.00
2022-11-09T11:26:20.968Z,2.13
2022-11-09T11:29:15.157Z,2.33
2022-11-09T11:32:01.252Z,1.77
2022-11-09T11:35:03.951Z,2.22
2022-11-09T11:38:07.136Z,2.45
2022-11-09T11:41:14.738Z,1.42
2022-11-09T11:47:03.177Z,1.60
2022-11-09T11:49:51.556Z,2.20
2022-11-09T11:53:08.480Z,1.63
2022-11-09T11:56:18.611Z,1.90
2022-11-09T11:59:37.784Z,1.77
2022-11-09T12:03:02.043Z,2.10
2022-11-09T12:06:17.560Z,1.65
2022-11-09T12:09:25.599Z,1.95
2022-11-09T12:12:34.467Z,1.80
2022-11-09T12:15:51.211Z,2.10
2022-11-09T12:18:59.632Z,1.73
2022-11-09T12:22:08.967Z,2.50
2022-11-09T12:25:18.099Z,1.98
2022-11-09T12:28:22.651Z,2.63
2022-11-09T12:31:32.277Z,2.10
2022-11-09T12:34:44.470Z,2.30
2022-11-09T12:37:41.098Z,1.88
2022-11-09T12:40:35.735Z,1.83
2022-11-09T12:43:47.527Z,2.05
2022-11-09T12:46:38.606Z,2.67
2022-11-09T12:50:45.544Z,2.45
2022-11-09T12:53:35.404Z,2.35
2022-11-09T12:56:29.821Z,2.30
2022-11-09T12:59:27.994Z,2.58
2022-11-09T13:02:33.310Z,2.40
2022-11-09T13:05:38.070Z,2.53
2022-11-09T13:08:29.729Z,1.80
2022-11-09T13:11:18.824Z,2.33
2022-11-09T13:14:23.203Z,1.90
2022-11-09T13:17:21.779Z,2.28
2022-11-09T13:20:53.302Z,1.55
2022-11-09T13:29:41.455Z,1.85
2022-11-09T13:32:35.282Z,1.75
2022-11-09T13:35:40.226Z,1.95
2022-11-09T13:38:29.646Z,1.90
2022-11-09T13:41:38.925Z,2.10
2022-11-09T13:44:31.479Z,2.28
2022-11-09T13:47:34.638Z,2.47
2022-11-09T13:50:29.798Z,2.30
2022-11-09T13:53:51.108Z,2.50
2022-11-09T13:56:40.115Z,2.45
2022-11-09T14:00:01.246Z,2.42
2022-11-09T14:03:02.800Z,2.58
2022-11-09T14:05:55.126Z,2.03
2022-11-09T14:08:43.968Z,2.35
2022-11-09T14:11:54.046Z,3.03
2022-11-09T14:14:46.284Z,2.17
2022-11-09T14:18:02.699Z,2.00
2022-11-09T14:20:59.024Z,2.13
2022-11-09T14:23:44.765Z,2.00
2022-11-09T14:26:31.071Z,2.00
2022-11-09T14:29:22.995Z,2.70
2022-11-09T14:32:25.984Z,2.22
2022-11-09T14:35:19.845Z,2.30
2022-11-09T14:38:29.083Z,1.75
2022-11-09T14:41:25.816Z,2.33
2022-11-09T14:44:30.672Z,1.88
2022-11-09T14:47:19.821Z,2.67
2022-11-09T14:50:10.459Z,2.67
2022-11-09T14:52:57.616Z,1.60
2022-11-09T14:55:43.905Z,2.53
2022-11-09T14:58:32.594Z,2.05
2022-11-09T15:01:20.290Z,1.92
2022-11-09T15:04:20.173Z,2.10
2022-11-09T15:07:06.692Z,1.88
2022-11-09T15:12:52.078Z,2.35
2022-11-09T15:15:38.937Z,1.63
2022-11-09T15:21:26.376Z,1.50
2022-11-09T15:24:12.004Z,1.67
2022-11-09T15:26:58.351Z,1.90
2022-11-09T15:29:44.664Z,1.98
2022-11-09T15:32:37.851Z,2.20
2022-11-09T15:35:24.252Z,1.83
2022-11-09T15:38:28.879Z,2.13
2022-11-09T15:41:17.962Z,1.95
2022-11-09T15:44:05.275Z,1.70
2022-11-09T15:46:53.783Z,1.92
2022-11-09T15:49:39.768Z,1.75
2022-11-09T15:52:25.994Z,2.58
2022-11-09T15:55:16.519Z,2.42
2022-11-09T15:58:02.615Z,2.35
2022-11-09T16:00:48.788Z,2.03
2022-11-09T16:03:35.092Z,2.03
2022-11-09T16:06:23.617Z,2.13
2022-11-09T16:09:10.228Z,2.83
2022-11-09T16:11:56.446Z,2.25
2022-11-09T16:14:42.472Z,2.38
2022-11-09T16:17:29.697Z,2.20
2022-11-09T16:20:20.441Z,3.28
2022-11-09T16:23:06.497Z,2.03
2022-11-09T16:25:52.480Z,3.33
2022-11-09T16:28:40.275Z,2.40
2022-11-09T16:31:48.012Z,3.50
2022-11-09T16:34:32.317Z,3.13
2022-11-09T16:37:19.282Z,2.72
2022-11-09T16:40:08.273Z,2.72
2022-11-09T16:42:53.949Z,3.20
2022-11-09T16:45:47.611Z,2.58
2022-11-09T16:48:34.619Z,3.00
2022-11-09T16:51:21.158Z,3.47
2022-11-09T16:54:07.163Z,2.80
2022-11-09T16:56:54.874Z,2.33
2022-11-09T16:59:40.858Z,2.40
2022-11-09T17:02:27.255Z,2.47
2022-11-09T17:05:13.327Z,3.33
2022-11-09T17:07:59.229Z,2.85
2022-11-09T17:10:46.947Z,2.88
2022-11-09T17:13:33.030Z,3.00
2022-11-09T17:16:20.516Z,2.55
2022-11-09T17:19:06.451Z,2.03
2022-11-09T17:21:52.636Z,2.58
2022-11-09T17:24:38.377Z,3.35
2022-11-09T17:27:24.622Z,2.63
2022-11-09T17:30:11.822Z,2.55
2022-11-09T17:32:58.144Z,3.30
2022-11-09T17:35:44.278Z,2.38
2022-11-09T17:41:19.610Z,2.70
2022-11-09T17:44:05.846Z,3.08
2022-11-09T17:46:51.781Z,3.58
2022-11-09T17:49:37.741Z,2.90
2022-11-09T17:52:23.412Z,2.50
2022-11-09T17:55:09.499Z,3.30
2022-11-09T17:57:55.428Z,3.20
2022-11-09T18:03:32.430Z,3.03
2022-11-09T18:06:20.532Z,3.65
2022-11-09T18:12:13.338Z,3.03
2022-11-09T18:14:59.215Z,2.75
2022-11-09T18:17:45.225Z,2.75
2022-11-09T18:20:31.223Z,2.42
2022-11-09T18:23:17.390Z,2.47
2022-11-09T18:26:04.344Z,3.00
2022-11-09T18:28:50.176Z,3.03
2022-11-09T18:31:36.043Z,2.42
2022-11-09T18:34:22.361Z,2.85
2022-11-09T18:37:08.425Z,2.50
2022-11-09T18:39:54.377Z,2.25
2022-11-09T18:42:40.379Z,2.58
2022-11-09T18:45:26.776Z,2.75
2022-11-09T18:48:12.838Z,2.35
2022-11-09T18:51:00.123Z,2.38
2022-11-09T18:53:47.945Z,2.50
2022-11-09T18:56:34.071Z,2.90
2022-11-09T18:59:20.041Z,2.60
2022-11-09T19:02:08.899Z,2.70
2022-11-09T19:04:54.691Z,3.05
2022-11-09T19:07:40.977Z,2.17
2022-11-09T19:13:12.475Z,2.33
2022-11-09T19:15:58.669Z,2.83
2022-11-09T19:18:44.999Z,2.85
2022-11-09T19:21:41.806Z,2.83
2022-11-09T19:27:14.636Z,1.75
2022-11-09T19:30:04.806Z,2.22
2022-11-09T19:32:54.167Z,2.88
2022-11-09T19:35:39.850Z,1.88
2022-11-09T19:38:25.843Z,2.03
2022-11-09T19:41:11.954Z,2.85
2022-11-09T19:43:58.824Z,2.08
2022-11-09T19:46:44.781Z,2.15
2022-11-09T19:49:30.762Z,2.22
2022-11-09T19:52:16.906Z,2.63
2022-11-09T19:55:03.567Z,2.20
2022-11-09T19:57:49.529Z,2.40
2022-11-09T20:00:36.000Z,2.58
2022-11-09T20:03:21.767Z,2.10
2022-11-09T20:06:07.953Z,2.55
2022-11-09T20:08:53.967Z,2.30
2022-11-09T20:11:58.663Z,2.22
2022-11-09T20:14:44.895Z,2.42
2022-11-09T20:17:30.931Z,1.90
2022-11-09T20:20:17.552Z,2.20
2022-11-09T20:25:50.224Z,2.17
2022-11-09T20:28:37.031Z,2.20
2022-11-09T20:34:09.783Z,2.00
2022-11-09T20:39:43.234Z,2.53
2022-11-09T20:42:29.568Z,2.00
2022-11-09T20:45:15.704Z,2.55
2022-11-09T20:51:10.472Z,2.28
2022-11-09T20:53:56.499Z,1.63
2022-11-09T20:56:42.605Z,2.45
2022-11-09T20:59:28.934Z,2.13
2022-11-09T21:02:18.141Z,2.30
2022-11-09T21:05:04.711Z,2.10
2022-11-09T21:10:36.633Z,2.03
2022-11-09T21:13:22.959Z,2.65
2022-11-09T21:16:12.351Z,2.28
2022-11-09T21:18:58.329Z,2.47
2022-11-09T21:21:44.400Z,1.95
2022-11-09T21:24:49.201Z,1.92
2022-11-09T21:27:54.648Z,1.83
2022-11-09T21:30:41.578Z,1.90
2022-11-09T21:33:27.450Z,2.40
2022-11-09T21:36:14.704Z,2.08
2022-11-09T21:39:02.075Z,2.45
2022-11-09T21:41:48.173Z,2.33
2022-11-09T21:44:35.154Z,2.20
2022-11-09T21:47:23.318Z,1.90
2022-11-09T21:50:12.837Z,1.90
2022-11-09T21:52:59.230Z,1.77
2022-11-09T21:55:45.312Z,2.08
2022-11-09T21:58:31.902Z,1.83
2022-11-09T22:04:07.677Z,2.53
2022-11-09T22:06:53.884Z,2.35
2022-11-09T22:13:04.411Z,2.10
2022-11-09T22:16:09.309Z,2.38
2022-11-09T22:19:14.496Z,2.33
2022-11-09T22:22:00.630Z,2.05
2022-11-09T22:27:33.204Z,1.98
2022-11-09T22:30:19.076Z,2.22
2022-11-09T22:33:05.238Z,2.00
2022-11-09T22:38:41.409Z,2.20
2022-11-09T22:41:27.451Z,1.77
2022-11-09T22:44:13.474Z,2.07
2022-11-09T22:46:59.426Z,2.20
2022-11-09T22:49:45.426Z,1.88
2022-11-09T22:52:31.512Z,2.38
2022-11-09T22:55:18.408Z,1.90
2022-11-09T22:58:04.424Z,2.33
2022-11-09T23:00:51.431Z,2.30
2022-11-09T23:03:38.143Z,1.60
2022-11-09T23:06:24.682Z,1.77
2022-11-09T23:09:10.534Z,2.47
2022-11-09T23:11:56.525Z,1.88
2022-11-09T23:15:00.889Z,1.85
2022-11-09T23:18:05.602Z,1.92
2022-11-09T23:20:51.537Z,1.70
2022-11-09T23:23:37.891Z,1.45
2022-11-09T23:26:25.065Z,1.50
2022-11-09T23:29:11.189Z,1.60
2022-11-09T23:31:57.291Z,1.55
2022-11-09T23:34:43.125Z,1.23
2022-11-09T23:37:29.059Z,1.20
2022-11-09T23:40:15.193Z,1.80
2022-11-09T23:43:06.945Z,1.60
2022-11-09T23:45:52.662Z,1.75
2022-11-09T23:48:39.331Z,1.02
2022-11-09T23:51:25.469Z,1.45
2022-11-09T23:54:11.561Z,1.15
2022-11-09T23:56:57.448Z,1.67
2022-11-09T23:59:43.492Z,1.50
